Time;durP1;ratioP1;P1;durP2;ratioP2;P2;SDS_P1;SDS_P2;PMS_P1;PMS_P2;Temp;Humidity;BMP_temperature;BMP_pressure;BME280_temperature;BME280_humidity;BME280_pressure;Samples;Min_cycle;Max_cycle;Signal;HPM_P1;HPM_P2
2023/09/20 00:00:40;;;;;;;5.03;2.60;;;;;;;12.94;74.74;100639.09;4969418;28;20301;-69
2023/09/20 00:03:07;;;;;;;5.13;2.70;;;;;;;12.95;75.50;100631.91;4983374;28;20293;-68
2023/09/20 00:05:34;;;;;;;3.57;2.33;;;;;;;12.93;74.42;100632.25;4994354;28;20728;-69
2023/09/20 00:08:04;;;;;;;6.07;2.47;;;;;;;12.94;75.30;100630.38;4993618;28;20201;-69
2023/09/20 00:10:31;;;;;;;4.27;2.73;;;;;;;12.95;75.27;100637.22;4996604;28;21806;-69
2023/09/20 00:12:57;;;;;;;5.33;2.60;;;;;;;12.96;75.26;100638.78;4993952;28;20214;-69
2023/09/20 00:15:25;;;;;;;7.80;2.67;;;;;;;12.95;75.33;100642.53;4995055;28;20252;-70
2023/09/20 00:17:52;;;;;;;4.37;2.73;;;;;;;12.94;75.85;100641.75;5001160;28;20208;-69
2023/09/20 00:20:19;;;;;;;4.70;2.53;;;;;;;12.94;75.63;100647.03;5000100;28;20224;-69
2023/09/20 00:22:46;;;;;;;8.07;3.00;;;;;;;12.93;75.47;100640.22;5001674;28;20308;-68
2023/09/20 00:25:14;;;;;;;4.73;2.60;;;;;;;12.94;75.00;100638.34;5003697;28;20835;-70
2023/09/20 00:27:41;;;;;;;6.97;2.60;;;;;;;12.93;74.55;100645.50;5002940;28;20209;-70
2023/09/20 00:30:10;;;;;;;4.40;2.80;;;;;;;12.94;74.86;100644.41;4982804;28;20236;-69
2023/09/20 00:32:40;;;;;;;3.33;2.50;;;;;;;12.96;75.52;100639.56;4991355;28;21031;-69
2023/09/20 00:35:10;;;;;;;4.17;2.70;;;;;;;12.96;75.42;100639.56;4993781;28;20322;-70
2023/09/20 00:37:38;;;;;;;4.40;2.27;;;;;;;12.99;75.16;100638.88;4991776;28;20283;-69
2023/09/20 00:40:06;;;;;;;5.80;2.57;;;;;;;12.99;75.62;100638.88;4994727;28;20977;-70
2023/09/20 00:42:33;;;;;;;7.53;2.60;;;;;;;13.01;75.39;100635.91;4976737;28;20215;-69
2023/09/20 00:45:01;;;;;;;4.53;2.63;;;;;;;13.01;75.03;100638.53;4974776;28;20245;-69
2023/09/20 00:47:29;;;;;;;6.70;2.97;;;;;;;13.03;75.76;100631.78;4997815;28;20218;-70
2023/09/20 00:49:57;;;;;;;3.30;2.67;;;;;;;13.03;75.33;100633.66;4991320;28;21300;-71
2023/09/20 00:52:27;;;;;;;4.23;2.43;;;;;;;13.06;76.22;100633.00;4979242;28;20225;-69
2023/09/20 00:54:56;;;;;;;3.77;2.50;;;;;;;13.04;75.47;100630.69;4986643;28;20229;-69
2023/09/20 00:57:23;;;;;;;4.73;2.43;;;;;;;13.03;74.92;100629.16;4979066;28;20315;-69
2023/09/20 00:59:49;;;;;;;4.20;2.83;;;;;;;13.04;75.44;100633.34;4972860;28;20487;-68
2023/09/20 01:02:16;;;;;;;3.47;2.20;;;;;;;13.06;75.49;100633.00;4990688;28;21010;-69
2023/09/20 01:04:43;;;;;;;4.30;2.60;;;;;;;13.05;75.11;100637.50;4976225;28;20237;-70
2023/09/20 01:07:12;;;;;;;3.80;2.67;;;;;;;13.06;75.17;100633.78;4993655;28;20235;-70
2023/09/20 01:09:39;;;;;;;4.20;2.40;;;;;;;13.07;74.93;100637.97;4988465;28;20211;-70
2023/09/20 01:12:07;;;;;;;3.87;2.40;;;;;;;13.07;74.84;100640.63;4986084;28;20256;-69
2023/09/20 01:14:33;;;;;;;6.30;2.80;;;;;;;13.09;75.13;100637.63;4992385;28;21232;-69
2023/09/20 01:17:07;;;;;;;3.00;2.40;;;;;;;13.08;75.20;100642.16;4989721;28;20464;-70
2023/09/20 01:19:34;;;;;;;3.93;2.40;;;;;;;13.09;75.43;100629.69;4991561;28;20859;-69
2023/09/20 01:22:01;;;;;;;5.43;2.03;;;;;;;13.08;75.02;100631.53;4980256;28;21296;-69
2023/09/20 01:24:29;;;;;;;4.03;2.50;;;;;;;13.09;74.95;100629.69;4976806;28;20245;-69
2023/09/20 01:26:58;;;;;;;4.90;2.67;;;;;;;13.10;75.35;100636.50;4992629;28;21264;-69
2023/09/20 01:29:26;;;;;;;7.40;2.53;;;;;;;13.11;74.97;100630.09;4975221;28;20221;-69
2023/09/20 01:31:52;;;;;;;5.27;2.50;;;;;;;13.11;75.72;100624.78;4991717;28;20214;-69
2023/09/20 01:34:19;;;;;;;3.90;2.27;;;;;;;13.11;75.67;100628.22;4994032;28;20264;-69
2023/09/20 01:36:45;;;;;;;6.70;2.30;;;;;;;13.14;75.68;100629.44;4989999;28;20224;-69
2023/09/20 01:39:13;;;;;;;2.90;2.50;;;;;;;13.13;75.55;100622.56;4975168;28;20234;-69
2023/09/20 01:41:39;;;;;;;5.23;2.40;;;;;;;13.15;76.42;100623.00;4994072;28;20866;-70
2023/09/20 01:44:07;;;;;;;5.27;2.30;;;;;;;13.15;76.91;100621.09;4979767;28;20210;-70
2023/09/20 01:46:33;;;;;;;6.57;2.30;;;;;;;13.14;76.69;100618.81;4986035;28;20229;-69
2023/09/20 01:49:00;;;;;;;2.73;2.40;;;;;;;13.15;76.50;100628.31;4982952;28;20206;-69
2023/09/20 01:51:26;;;;;;;5.37;2.67;;;;;;;13.13;75.69;100622.56;4989704;28;20280;-70
2023/09/20 01:53:54;;;;;;;2.87;2.03;;;;;;;13.15;75.92;100623.75;4994813;28;20218;-69
2023/09/20 01:56:24;;;;;;;2.50;2.30;;;;;;;13.16;75.79;100619.25;4976376;28;21325;-69
2023/09/20 01:58:50;;;;;;;7.00;2.20;;;;;;;13.18;76.08;100617.00;4984150;28;21150;-69
2023/09/20 02:01:17;;;;;;;4.13;2.13;;;;;;;13.22;75.44;100623.19;4989370;28;20214;-69
2023/09/20 02:03:44;;;;;;;4.63;2.00;;;;;;;13.24;75.97;100620.97;4972726;28;21008;-69
2023/09/20 02:06:10;;;;;;;3.03;2.07;;;;;;;13.25;75.78;100619.84;4975794;28;21509;-69
2023/09/20 02:08:37;;;;;;;4.67;2.20;;;;;;;13.27;75.70;100617.63;4974356;28;20237;-69
2023/09/20 02:11:04;;;;;;;2.13;1.83;;;;;;;13.29;75.74;100621.47;4976595;28;20302;-68
2023/09/20 02:13:32;;;;;;;3.80;2.03;;;;;;;13.34;75.90;100625.75;4992142;28;21137;-68
2023/09/20 02:15:59;;;;;;;2.57;1.87;;;;;;;13.37;76.06;100623.19;4982067;28;20245;-69
2023/09/20 02:18:25;;;;;;;3.60;2.40;;;;;;;13.38;75.98;100624.72;4999300;28;21095;-69
2023/09/20 02:20:52;;;;;;;2.23;1.83;;;;;;;13.42;75.62;100622.94;4998706;28;22064;-68
2023/09/20 02:23:18;;;;;;;2.17;1.97;;;;;;;13.43;75.73;100621.81;4992940;28;21149;-69
2023/09/20 02:25:45;;;;;;;8.60;2.00;;;;;;;13.45;75.78;100618.84;4974319;28;20657;-68
2023/09/20 02:28:12;;;;;;;3.97;1.93;;;;;;;13.46;75.98;100623.78;4990748;28;20717;-69
2023/09/20 02:30:41;;;;;;;4.87;2.13;;;;;;;13.49;76.06;100617.00;5000384;28;20339;-70
2023/09/20 02:33:10;;;;;;;2.77;1.77;;;;;;;13.49;76.02;100625.75;4997433;28;20210;-69
2023/09/20 02:35:37;;;;;;;4.17;2.17;;;;;;;13.51;75.84;100623.50;4991196;28;20914;-69
2023/09/20 02:38:05;;;;;;;3.07;1.87;;;;;;;13.53;75.62;100623.97;4997154;28;21254;-69
2023/09/20 02:40:34;;;;;;;4.20;2.00;;;;;;;13.54;75.48;100619.41;4983864;28;20840;-68
2023/09/20 02:43:03;;;;;;;2.37;1.80;;;;;;;13.54;75.58;100619.41;4992604;28;20704;-69
2023/09/20 02:45:30;;;;;;;5.87;2.07;;;;;;;13.55;75.52;100629.69;4979225;28;20511;-69
2023/09/20 02:47:58;;;;;;;3.93;2.00;;;;;;;13.57;75.68;100624.03;4988607;28;20203;-69
2023/09/20 02:50:25;;;;;;;2.87;2.17;;;;;;;13.56;75.91;100622.50;4985952;28;20583;-68
2023/09/20 02:52:53;;;;;;;4.33;2.00;;;;;;;13.55;75.85;100626.28;4978612;28;20352;-69
2023/09/20 02:55:21;;;;;;;3.17;1.97;;;;;;;13.55;75.91;100631.59;5001733;28;20987;-69
2023/09/20 02:57:50;;;;;;;4.90;2.10;;;;;;;13.56;76.01;100630.47;4984425;28;20219;-69
2023/09/20 03:00:21;;;;;;;3.27;1.93;;;;;;;13.58;75.84;100623.69;4983086;28;20242;-68
2023/09/20 03:02:50;;;;;;;3.10;2.00;;;;;;;13.59;76.53;100617.28;4982746;28;20202;-69
2023/09/20 03:05:19;;;;;;;2.13;1.70;;;;;;;13.61;76.17;100620.34;4992550;28;20237;-69
2023/09/20 03:07:46;;;;;;;3.27;2.10;;;;;;;13.62;76.13;100613.91;4977545;28;20248;-68
2023/09/20 03:10:13;;;;;;;2.97;2.03;;;;;;;13.63;76.52;100618.13;4993830;28;20439;-68
2023/09/20 03:12:43;;;;;;;4.03;2.00;;;;;;;13.65;76.24;100617.75;4989359;28;20627;-69
2023/09/20 03:15:11;;;;;;;4.87;1.90;;;;;;;13.65;76.38;100617.75;4977425;28;21663;-69
2023/09/20 03:17:39;;;;;;;4.80;2.00;;;;;;;13.66;76.14;100616.69;4981924;28;20909;-68
2023/09/20 03:20:11;;;;;;;4.23;1.90;;;;;;;13.68;76.10;100622.41;4971817;28;20234;-67
2023/09/20 03:22:40;;;;;;;5.37;1.80;;;;;;;13.68;76.25;100623.19;4980488;28;21556;-68
2023/09/20 03:25:09;;;;;;;2.43;1.90;;;;;;;13.68;76.38;100619.75;4988273;28;20234;-69
2023/09/20 03:27:38;;;;;;;4.03;2.20;;;;;;;13.70;76.06;100633.44;4973668;28;20223;-69
2023/09/20 03:30:10;;;;;;;3.53;1.80;;;;;;;13.70;76.36;100625.47;4979468;28;20204;-68
2023/09/20 03:32:36;;;;;;;2.70;1.80;;;;;;;13.71;76.35;100622.47;4976606;28;20206;-68
2023/09/20 03:35:06;;;;;;;2.97;1.90;;;;;;;13.72;76.04;100633.88;4983941;28;20236;-68
2023/09/20 03:37:36;;;;;;;5.53;2.00;;;;;;;13.73;76.43;100630.09;4997471;28;20231;-69
2023/09/20 03:40:06;;;;;;;2.13;1.70;;;;;;;13.74;76.84;100627.09;4985795;28;20226;-69
2023/09/20 03:42:33;;;;;;;4.63;2.00;;;;;;;13.78;76.47;100625.31;4987395;28;21230;-68
2023/09/20 03:45:00;;;;;;;2.47;2.03;;;;;;;13.82;76.73;100625.38;4982051;28;20380;-70
2023/09/20 03:47:28;;;;;;;4.17;1.73;;;;;;;13.87;76.53;100631.19;5007924;28;20213;-69
2023/09/20 03:49:55;;;;;;;3.20;1.93;;;;;;;13.91;76.39;100637.34;4988270;28;20211;-68
2023/09/20 03:52:21;;;;;;;6.10;2.13;;;;;;;13.96;76.41;100629.09;4988558;28;20269;-69
2023/09/20 03:54:50;;;;;;;2.93;1.77;;;;;;;14.00;76.13;100619.34;4985874;28;20428;-68
2023/09/20 03:57:18;;;;;;;1.97;1.73;;;;;;;14.05;76.21;100632.34;4982467;28;20227;-68
2023/09/20 03:59:44;;;;;;;5.43;2.00;;;;;;;14.11;75.87;100622.22;4976861;28;20219;-68
2023/09/20 04:02:14;;;;;;;1.87;1.60;;;;;;;14.18;75.78;100615.16;4972218;28;20321;-69
2023/09/20 04:04:40;;;;;;;2.53;1.43;;;;;;;14.23;76.06;100617.56;4990288;28;21675;-68
2023/09/20 04:07:07;;;;;;;5.20;1.90;;;;;;;14.29;75.76;100621.50;5008091;28;21544;-69
2023/09/20 04:09:35;;;;;;;3.57;1.40;;;;;;;14.35;75.58;100622.00;4999671;28;20204;-69
2023/09/20 04:12:03;;;;;;;2.17;1.80;;;;;;;14.41;75.67;100620.59;4983531;28;20319;-69
2023/09/20 04:14:31;;;;;;;2.53;1.50;;;;;;;14.46;75.69;100612.34;4999075;28;20227;-68
2023/09/20 04:16:59;;;;;;;3.33;1.67;;;;;;;14.50;75.72;100621.16;4994324;28;21150;-69
2023/09/20 04:19:25;;;;;;;5.43;2.20;;;;;;;14.56;75.60;100622.41;4993575;28;20234;-68
2023/09/20 04:21:51;;;;;;;2.00;1.67;;;;;;;14.63;74.86;100625.97;4978807;28;20218;-68
2023/09/20 04:24:18;;;;;;;1.80;1.60;;;;;;;14.69;74.38;100623.81;4977887;28;20396;-68
2023/09/20 04:26:44;;;;;;;2.90;1.80;;;;;;;14.72;74.62;100629.19;4980962;28;20237;-68
2023/09/20 04:29:11;;;;;;;3.43;1.80;;;;;;;14.75;74.70;100628.47;4979868;28;20218;-68
2023/09/20 04:31:40;;;;;;;2.07;1.60;;;;;;;14.79;75.31;100631.19;4981756;28;20216;-68
2023/09/20 04:34:08;;;;;;;4.20;1.60;;;;;;;14.82;74.08;100627.84;4973264;28;20717;-68
2023/09/20 04:36:35;;;;;;;2.57;1.30;;;;;;;14.83;74.43;100632.03;4978596;28;20213;-67
2023/09/20 04:39:02;;;;;;;1.77;1.47;;;;;;;14.85;75.36;100629.81;4977728;28;20354;-69
2023/09/20 04:41:28;;;;;;;2.20;1.80;;;;;;;14.88;74.00;100645.06;4994010;28;20215;-68
2023/09/20 04:43:54;;;;;;;3.07;1.50;;;;;;;14.90;73.92;100645.50;4985637;28;20206;-68
2023/09/20 04:46:21;;;;;;;2.93;1.33;;;;;;;14.94;74.29;100648.97;4981043;28;20234;-69
2023/09/20 04:48:48;;;;;;;3.03;1.73;;;;;;;14.96;74.22;100644.81;4985722;28;20215;-69
2023/09/20 04:51:15;;;;;;;2.83;1.60;;;;;;;15.00;74.34;100650.22;4986463;28;20493;-69
2023/09/20 04:53:41;;;;;;;3.20;1.80;;;;;;;15.02;74.18;100650.63;4999351;28;20231;-68
2023/09/20 04:56:08;;;;;;;2.97;1.50;;;;;;;15.05;73.98;100649.94;4985176;28;21403;-68
2023/09/20 04:58:35;;;;;;;4.37;1.53;;;;;;;15.06;73.38;100660.22;4975253;28;20957;-68
2023/09/20 05:01:02;;;;;;;3.27;1.77;;;;;;;15.07;74.47;100655.66;4983296;28;20233;-69
2023/09/20 05:03:28;;;;;;;2.43;1.50;;;;;;;15.08;73.86;100662.53;4975941;28;20211;-68
2023/09/20 05:05:56;;;;;;;2.07;1.47;;;;;;;15.06;73.97;100654.88;4982298;28;20232;-68
2023/09/20 05:08:22;;;;;;;4.47;1.40;;;;;;;15.05;73.59;100657.91;4979627;28;20217;-68
2023/09/20 05:10:49;;;;;;;1.77;1.60;;;;;;;15.05;73.63;100663.25;4992970;28;20347;-69
2023/09/20 05:13:16;;;;;;;2.00;1.50;;;;;;;15.03;73.65;100652.94;4990478;28;20208;-68
2023/09/20 05:15:43;;;;;;;2.73;1.70;;;;;;;15.02;73.89;100655.97;4999332;28;20233;-69
2023/09/20 05:18:11;;;;;;;2.63;1.20;;;;;;;15.01;73.57;100654.41;4979032;28;21312;-68
2023/09/20 05:20:38;;;;;;;2.67;1.53;;;;;;;14.99;73.64;100665.41;4971722;28;20725;-69
2023/09/20 05:23:05;;;;;;;2.07;1.47;;;;;;;14.98;74.01;100665.75;4981976;28;20211;-69
2023/09/20 05:25:33;;;;;;;4.83;2.20;;;;;;;14.96;74.72;100671.41;4977568;28;20233;-69
2023/09/20 05:28:00;;;;;;;1.50;1.40;;;;;;;14.95;74.50;100669.13;4996549;28;20227;-69
2023/09/20 05:30:26;;;;;;;4.20;1.67;;;;;;;14.94;74.18;100675.56;4971967;28;20223;-68
2023/09/20 05:32:53;;;;;;;2.90;1.60;;;;;;;14.93;74.78;100664.16;4996784;28;20216;-68
2023/09/20 05:35:20;;;;;;;2.07;1.60;;;;;;;14.94;74.65;100676.31;4995316;28;20256;-68
2023/09/20 05:37:47;;;;;;;2.43;1.73;;;;;;;14.93;74.50;100676.66;4998241;28;20230;-69
2023/09/20 05:40:17;;;;;;;3.37;1.60;;;;;;;14.93;74.60;100682.78;4997801;28;20230;-69
2023/09/20 05:42:44;;;;;;;2.70;1.30;;;;;;;14.93;74.61;100676.66;4994270;28;21861;-69
2023/09/20 05:45:11;;;;;;;2.07;1.50;;;;;;;14.94;74.89;100678.22;4992645;28;20635;-69
2023/09/20 05:47:37;;;;;;;4.23;1.50;;;;;;;14.94;74.89;100681.66;4996202;28;20220;-68
2023/09/20 05:50:04;;;;;;;2.63;1.40;;;;;;;14.95;74.67;100685.84;4995974;28;20507;-68
2023/09/20 05:52:30;;;;;;;3.17;1.70;;;;;;;14.98;74.80;100684.38;4995193;28;21604;-69
2023/09/20 05:54:56;;;;;;;3.90;2.27;;;;;;;15.01;75.00;100689.00;4994888;28;20239;-68
2023/09/20 05:57:27;;;;;;;5.53;1.83;;;;;;;15.04;75.13;100688.28;5001584;28;20210;-69
2023/09/20 05:59:56;;;;;;;3.37;1.53;;;;;;;15.07;75.28;100691.00;5000231;28;20377;-68
2023/09/20 06:02:22;;;;;;;4.83;1.80;;;;;;;15.13;75.14;100686.16;4994570;28;20218;-69
2023/09/20 06:04:50;;;;;;;2.40;1.50;;;;;;;15.21;75.06;100690.50;5004160;28;20448;-69
2023/09/20 06:07:17;;;;;;;4.77;1.80;;;;;;;15.27;74.96;100694.41;4991498;28;20203;-68
2023/09/20 06:09:43;;;;;;;3.40;1.60;;;;;;;15.34;75.07;100687.34;5000167;28;20217;-69
2023/09/20 06:12:10;;;;;;;2.80;1.60;;;;;;;15.42;75.40;100690.91;4997089;28;20218;-70
2023/09/20 06:14:38;;;;;;;2.33;1.60;;;;;;;15.52;74.92;100693.72;5000713;28;20230;-70
2023/09/20 06:17:04;;;;;;;1.83;1.67;;;;;;;15.62;74.92;100695.81;4997930;28;20457;-70
2023/09/20 06:19:30;;;;;;;2.67;1.60;;;;;;;15.73;74.44;100694.06;5000114;28;20222;-69
2023/09/20 06:21:57;;;;;;;2.83;1.50;;;;;;;15.82;74.43;100701.81;4998526;28;20230;-69
2023/09/20 06:24:23;;;;;;;2.53;1.40;;;;;;;15.94;74.40;100697.06;4999446;28;20234;-69
2023/09/20 06:26:49;;;;;;;1.20;1.07;;;;;;;16.03;73.52;100694.94;4992391;28;20225;-69
2023/09/20 06:29:16;;;;;;;2.77;1.40;;;;;;;16.13;73.73;100698.88;4996579;28;20702;-70
2023/09/20 06:31:43;;;;;;;3.67;1.37;;;;;;;16.21;73.58;100701.28;4993922;28;20207;-69
2023/09/20 06:34:10;;;;;;;2.33;1.50;;;;;;;16.31;72.85;100695.31;4996823;28;20223;-69
2023/09/20 06:36:37;;;;;;;2.33;2.00;;;;;;;16.39;72.81;100697.00;5000132;28;20253;-69
2023/09/20 06:39:05;;;;;;;2.73;1.60;;;;;;;16.45;73.54;100695.53;4999079;28;20593;-69
2023/09/20 06:41:32;;;;;;;2.10;1.27;;;;;;;16.55;72.14;100708.25;4999044;28;21350;-69
2023/09/20 06:43:58;;;;;;;3.57;1.60;;;;;;;16.63;71.53;100701.88;4999988;28;20218;-69
2023/09/20 06:46:25;;;;;;;4.33;1.50;;;;;;;16.71;72.07;100708.06;5003358;28;20207;-69
2023/09/20 06:48:55;;;;;;;2.90;1.73;;;;;;;16.81;71.28;100710.84;4996355;28;20412;-68
2023/09/20 06:51:22;;;;;;;3.20;1.47;;;;;;;16.89;70.95;100709.81;4994039;28;21274;-70
2023/09/20 06:53:49;;;;;;;3.47;1.30;;;;;;;16.96;71.68;100715.22;4999366;28;20581;-69
2023/09/20 06:56:15;;;;;;;2.50;1.30;;;;;;;17.04;71.85;100706.16;4998880;28;20593;-69
2023/09/20 06:58:45;;;;;;;1.30;1.20;;;;;;;17.12;71.22;100715.03;5001322;28;20207;-69
2023/09/20 07:01:11;;;;;;;2.43;1.30;;;;;;;17.19;71.62;100710.50;5001294;28;20237;-69
2023/09/20 07:03:39;;;;;;;2.67;1.17;;;;;;;17.27;70.29;100722.00;4999136;28;20202;-69
2023/09/20 07:06:06;;;;;;;2.90;1.60;;;;;;;17.32;69.96;100721.69;5000176;28;20265;-69
2023/09/20 07:08:34;;;;;;;1.87;1.20;;;;;;;17.37;69.69;100714.13;5000270;28;20902;-70
2023/09/20 07:11:02;;;;;;;3.00;1.40;;;;;;;17.45;68.99;100715.78;5003902;28;20203;-69
2023/09/20 07:13:31;;;;;;;2.27;1.20;;;;;;;17.56;70.01;100724.63;5000692;28;21748;-69
2023/09/20 07:15:58;;;;;;;2.43;1.30;;;;;;;17.66;67.30;100721.28;5003576;28;21061;-70
2023/09/20 07:18:24;;;;;;;1.90;1.17;;;;;;;17.76;68.01;100711.81;5001163;28;20207;-69
2023/09/20 07:20:54;;;;;;;2.67;1.40;;;;;;;17.83;68.43;100719.88;4998507;28;20235;-70
2023/09/20 07:23:22;;;;;;;5.33;1.43;;;;;;;17.94;66.62;100718.84;5003673;28;20211;-69
2023/09/20 07:25:49;;;;;;;2.17;1.10;;;;;;;18.02;66.45;100714.31;4977273;28;20223;-69
2023/09/20 07:28:16;;;;;;;2.47;1.80;;;;;;;18.14;66.09;100717.44;4998148;28;20328;-70
2023/09/20 07:30:44;;;;;;;3.93;1.53;;;;;;;18.22;66.15;100719.00;5002972;28;20323;-69
2023/09/20 07:33:12;;;;;;;2.20;1.03;;;;;;;18.32;64.71;100722.94;5001617;28;20222;-68
2023/09/20 07:35:46;;;;;;;2.17;1.23;;;;;;;18.40;66.16;100724.50;5002047;28;20239;-68
2023/09/20 07:38:18;;;;;;;2.00;1.20;;;;;;;18.51;66.76;100720.75;5005979;28;20226;-69
2023/09/20 07:40:50;;;;;;;3.73;1.60;;;;;;;18.61;65.15;100724.59;5000863;28;20230;-68
2023/09/20 07:43:18;;;;;;;2.03;1.10;;;;;;;18.71;63.98;100719.31;5002767;28;20206;-69
2023/09/20 07:45:44;;;;;;;2.40;1.37;;;;;;;18.80;65.00;100724.31;5000222;28;20262;-69
2023/09/20 07:48:13;;;;;;;2.07;1.43;;;;;;;18.93;62.91;100718.25;4999326;28;20207;-68
2023/09/20 07:50:41;;;;;;;3.60;1.60;;;;;;;19.05;65.35;100731.28;5006563;28;21303;-69
2023/09/20 07:53:10;;;;;;;2.47;1.60;;;;;;;19.16;64.01;100734.00;5005154;28;20341;-69
2023/09/20 07:55:37;;;;;;;2.53;1.30;;;;;;;19.27;62.94;100727.56;5002027;28;20353;-69
2023/09/20 07:58:05;;;;;;;3.33;1.30;;;;;;;19.38;64.90;100736.38;5002765;28;20304;-68
2023/09/20 08:00:32;;;;;;;2.27;1.13;;;;;;;19.52;62.47;100731.03;5005899;28;21005;-69
2023/09/20 08:02:58;;;;;;;1.80;1.20;;;;;;;19.59;60.60;100739.06;5000811;28;20669;-69
2023/09/20 08:05:24;;;;;;;4.80;1.30;;;;;;;19.68;61.16;100742.16;5005873;28;21430;-68
2023/09/20 08:07:51;;;;;;;3.60;1.40;;;;;;;19.84;62.39;100747.13;5007550;28;20928;-69
2023/09/20 08:10:17;;;;;;;3.03;1.30;;;;;;;19.94;64.17;100741.78;5006721;28;20218;-68
2023/09/20 08:12:43;;;;;;;5.53;1.50;;;;;;;20.06;61.53;100738.69;4997542;28;20219;-69
2023/09/20 08:15:12;;;;;;;4.17;1.20;;;;;;;20.18;60.80;100746.34;5003134;28;20231;-69
2023/09/20 08:20:24;;;;;;;4.77;1.20;;;;;;;20.45;61.14;100741.31;5004816;28;20229;-69
2023/09/20 09:01:22;;;;;;;4.72;1.30;;;;;;;21.87;55.89;100714.84;5002661;28;20440;-69
2023/09/20 09:03:50;;;;;;;3.28;1.38;;;;;;;21.95;56.26;100724.41;5002804;28;20579;-69
2023/09/20 09:06:16;;;;;;;3.03;1.27;;;;;;;22.05;57.29;100722.75;4999724;28;20350;-69
2023/09/20 09:08:43;;;;;;;3.75;1.30;;;;;;;22.12;54.40;100715.41;5002554;28;20562;-69
2023/09/20 09:11:09;;;;;;;5.03;1.30;;;;;;;22.24;53.59;100714.88;5004735;28;20214;-70
2023/09/20 09:13:36;;;;;;;4.15;1.10;;;;;;;22.36;54.36;100714.34;4999031;28;21716;-68
2023/09/20 09:16:05;;;;;;;3.15;1.30;;;;;;;22.48;55.39;100712.38;5004441;28;20682;-69
2023/09/20 09:18:31;;;;;;;5.13;1.30;;;;;;;22.59;53.38;100713.75;4999130;28;20569;-69
2023/09/20 09:20:59;;;;;;;1.90;1.00;;;;;;;22.66;52.90;100713.69;4999135;28;20231;-69
2023/09/20 09:23:36;;;;;;;3.88;1.30;;;;;;;22.70;53.37;100711.69;5004904;28;20913;-69
2023/09/20 09:26:02;;;;;;;1.92;1.40;;;;;;;22.80;53.13;100700.03;5004141;28;20231;-70
2023/09/20 09:28:30;;;;;;;4.13;1.30;;;;;;;22.83;52.02;100699.22;5001654;28;20218;-69
2023/09/20 09:30:56;;;;;;;2.97;1.08;;;;;;;22.94;52.30;100705.22;5003022;28;20231;-69
2023/09/20 09:33:25;;;;;;;1.98;1.13;;;;;;;23.04;53.28;100704.31;5005762;28;20211;-69
2023/09/20 09:35:52;;;;;;;4.07;1.30;;;;;;;23.14;52.81;100696.09;4981632;28;20250;-68
2023/09/20 09:38:23;;;;;;;2.30;1.30;;;;;;;23.26;51.77;100708.25;5001055;28;20203;-70
2023/09/20 09:40:53;;;;;;;4.13;1.17;;;;;;;23.37;53.37;100697.34;5004338;28;20207;-69
2023/09/20 09:43:20;;;;;;;3.80;1.55;;;;;;;23.46;52.95;100698.34;5002328;28;20206;-69
2023/09/20 09:45:48;;;;;;;2.25;1.40;;;;;;;23.57;49.52;100685.44;5001112;28;20246;-69
2023/09/20 09:48:16;;;;;;;4.60;1.25;;;;;;;23.67;53.12;100689.16;5002468;28;20435;-69
2023/09/20 09:50:45;;;;;;;3.40;1.23;;;;;;;23.76;53.97;100682.06;5001193;28;20219;-69
2023/09/20 09:53:14;;;;;;;6.13;1.30;;;;;;;23.82;49.89;100693.88;5001565;28;20876;-69
2023/09/20 09:55:42;;;;;;;6.65;1.60;;;;;;;23.91;49.94;100696.84;5003986;28;20246;-70
2023/09/20 09:58:09;;;;;;;2.38;1.13;;;;;;;23.99;49.45;100686.69;4996598;28;20207;-70
2023/09/20 10:00:37;;;;;;;3.33;1.45;;;;;;;24.04;49.33;100686.97;4999675;28;20217;-69
2023/09/20 10:03:15;;;;;;;3.05;1.20;;;;;;;24.11;49.59;100677.97;4998332;28;20210;-69
2023/09/20 10:05:42;;;;;;;4.53;1.30;;;;;;;;;;4995142;28;20231;-69
2023/09/20 10:08:10;;;;;;;4.20;1.08;;;;;;;24.24;48.67;100674.25;5000678;28;21561;-69
2023/09/20 10:10:36;;;;;;;1.58;1.08;;;;;;;24.33;50.50;100674.47;4999716;28;20207;-69
2023/09/20 10:13:05;;;;;;;2.75;1.17;;;;;;;24.39;50.47;100680.91;4999215;28;20203;-69
2023/09/20 10:15:33;;;;;;;6.28;1.48;;;;;;;24.44;49.00;100677.72;5001643;28;21446;-69
2023/09/20 10:18:00;;;;;;;4.57;1.30;;;;;;;24.50;48.01;100678.00;5005269;28;20341;-70
2023/09/20 10:20:58;;;;;;;3.10;1.23;;;;;;;24.49;49.23;100674.53;5008529;28;20207;-69
2023/09/20 10:23:25;;;;;;;1.85;1.05;;;;;;;24.40;48.72;100674.31;5007416;28;20812;-69
2023/09/20 10:25:53;;;;;;;4.70;1.40;;;;;;;24.40;48.13;100673.56;5005712;28;20597;-69
2023/09/20 10:28:24;;;;;;;2.90;1.20;;;;;;;24.39;51.08;100674.75;5002874;28;20230;-69
2023/09/20 10:31:02;;;;;;;3.13;1.30;;;;;;;24.33;48.13;100676.41;5003255;28;20894;-69
2023/09/20 10:33:41;;;;;;;3.65;1.40;;;;;;;24.29;47.30;100675.72;5007933;28;20207;-69
2023/09/20 10:36:07;;;;;;;2.28;1.20;;;;;;;24.29;50.10;100665.69;5005869;28;20240;-68
2023/09/20 10:38:33;;;;;;;3.00;1.33;;;;;;;24.17;49.19;100666.31;5008203;28;20317;-69
2023/09/20 10:41:05;;;;;;;5.13;1.55;;;;;;;24.16;47.53;100658.63;5006443;28;20211;-69
2023/09/20 10:43:50;;;;;;;2.13;1.15;;;;;;;24.18;48.42;100654.31;5001499;28;20259;-70
2023/09/20 10:46:22;;;;;;;3.05;1.38;;;;;;;24.13;48.27;100654.03;5007995;28;20336;-70
2023/09/20 10:48:50;;;;;;;3.50;1.05;;;;;;;24.09;48.02;100647.97;5008382;28;20693;-68
2023/09/20 10:51:41;;;;;;;2.13;1.20;;;;;;;24.04;51.06;100648.44;5004283;28;20707;-68
2023/09/20 10:54:22;;;;;;;4.75;1.35;;;;;;;24.09;48.10;100642.56;5008841;28;20294;-69
2023/09/20 10:57:11;;;;;;;2.05;1.20;;;;;;;24.16;47.86;100631.63;5007923;28;20220;-69
2023/09/20 10:59:44;;;;;;;2.92;1.10;;;;;;;24.24;49.93;100635.72;5012460;28;20215;-69
2023/09/20 11:02:16;;;;;;;3.58;1.17;;;;;;;24.33;50.34;100633.22;5003825;28;20590;-68
2023/09/20 11:04:43;;;;;;;1.88;1.10;;;;;;;24.41;48.05;100631.91;5006075;28;20235;-69
2023/09/20 11:07:09;;;;;;;3.63;1.25;;;;;;;24.53;48.16;100621.22;5004820;28;20335;-69
2023/09/20 11:09:38;;;;;;;4.20;1.10;;;;;;;24.61;47.35;100629.97;5007297;28;21234;-69
2023/09/20 11:12:10;;;;;;;1.63;1.05;;;;;;;24.66;48.25;100632.16;5007630;28;20318;-70
2023/09/20 11:14:41;;;;;;;3.85;1.20;;;;;;;24.69;46.86;100624.00;5006867;28;21011;-70
2023/09/20 11:17:08;;;;;;;2.30;1.05;;;;;;;24.70;48.33;100627.47;5004120;28;20252;-69
2023/09/20 11:19:35;;;;;;;3.63;1.25;;;;;;;24.69;47.93;100632.09;5004189;28;20217;-70
2023/09/20 11:22:03;;;;;;;2.88;1.10;;;;;;;24.63;46.70;100624.91;5002377;28;20223;-69
2023/09/20 11:24:30;;;;;;;2.10;1.10;;;;;;;24.61;47.93;100617.22;5006553;28;20233;-69
2023/09/20 11:26:57;;;;;;;4.30;1.40;;;;;;;24.64;47.97;100618.31;5005775;28;20207;-68
2023/09/20 11:29:24;;;;;;;2.92;1.25;;;;;;;24.70;49.20;100619.38;5005377;28;20316;-70
2023/09/20 11:31:56;;;;;;;4.80;1.55;;;;;;;24.77;46.89;100619.94;5003436;28;20219;-69
2023/09/20 11:34:23;;;;;;;2.92;1.20;;;;;;;24.81;47.84;100609.06;5005556;28;20638;-69
2023/09/20 11:36:53;;;;;;;3.08;1.30;;;;;;;24.85;46.85;100605.09;5002922;28;20260;-69
2023/09/20 11:39:27;;;;;;;3.22;1.17;;;;;;;24.90;46.20;100604.59;5003663;28;20408;-69
2023/09/20 11:41:59;;;;;;;4.63;1.17;;;;;;;25.00;47.34;100609.00;5006979;28;20584;-70
2023/09/20 11:44:26;;;;;;;2.22;0.98;;;;;;;25.09;47.80;100597.59;5006166;28;20325;-69
2023/09/20 11:46:55;;;;;;;2.40;1.27;;;;;;;25.20;45.55;100592.69;5007189;28;20215;-69
2023/09/20 11:49:22;;;;;;;1.52;1.30;;;;;;;25.27;47.63;100589.88;5005983;28;20218;-69
2023/09/20 11:51:50;;;;;;;4.65;1.27;;;;;;;25.37;47.21;100592.28;5004978;28;20221;-69
2023/09/20 11:54:17;;;;;;;1.95;1.00;;;;;;;25.43;47.49;100581.72;5008175;28;20236;-69
2023/09/20 11:56:48;;;;;;;5.45;1.02;;;;;;;25.47;46.00;100574.25;5004053;28;20230;-70
2023/09/20 11:59:15;;;;;;;1.70;1.05;;;;;;;25.47;46.53;100577.72;5008269;28;20218;-69
2023/09/20 12:01:42;;;;;;;1.33;1.00;;;;;;;25.49;45.20;100569.94;4987250;28;20456;-68
2023/09/20 12:04:10;;;;;;;4.90;1.17;;;;;;;25.53;47.54;100575.28;5002599;28;20222;-69
2023/09/20 12:06:36;;;;;;;4.68;1.10;;;;;;;25.57;46.50;100560.47;5006738;28;20830;-69
2023/09/20 12:09:03;;;;;;;2.28;0.85;;;;;;;25.66;45.85;100559.84;5000884;28;20327;-70
2023/09/20 12:11:30;;;;;;;2.08;1.10;;;;;;;25.75;45.03;100557.28;5002760;28;20207;-68